This is the latest recevied weather packets stored in our database for station/object DL9LA-13. If no packets are shown the sender has not sent any weather packets the latest 10 day(s).
| Time | Temp. | Humidity | Pressure | Rain* | Wind** | Luminosity | Snow |
|---|---|---|---|---|---|---|---|
| 1778104693 | 13.33° C | 94% | 965 hPa | - | - | - | - |
| 1778101675 | 13.33° C | 93% | 965 hPa | - | - | - | - |
| 1778094431 | 14.44° C | 94% | 963 hPa | - | - | - | - |
| 1778093224 | 14.44° C | 94% | 963 hPa | - | - | - | - |
| 1778092620 | 15° C | 93% | 963 hPa | - | - | - | - |
| 1778088999 | 16.11° C | 96% | 961 hPa | - | - | - | - |
| 1778087791 | 15° C | 100% | 961 hPa | - | - | - | - |
| 1778086584 | 15° C | 100% | 961 hPa | - | - | - | - |
| 1778084773 | 16.11° C | 84% | 962 hPa | - | - | - | - |
| 1778084169 | 15.56° C | 83% | 961 hPa | - | - | - | - |
| 1778082962 | 16.67° C | 72% | 962 hPa | - | - | - | - |
| 1778081151 | 20° C | 48% | 960 hPa | - | - | - | - |
| 1778079944 | 20.56° C | 47% | 959 hPa | - | - | - | - |
| 1778078133 | 21.67° C | 42% | 959 hPa | - | - | - | - |
| 1778075115 | 23.33° C | 40% | 960 hPa | - | - | - | - |
| 1778074511 | 22.22° C | 41% | 960 hPa | - | - | - | - |
| 1778073304 | 22.22° C | 42% | 960 hPa | - | - | - | - |
| 1778070286 | 21.11° C | 45% | 960 hPa | - | - | - | - |
| 1778069682 | 20.56° C | 46% | 960 hPa | - | - | - | - |
| 1778067871 | 20.56° C | 46% | 961 hPa | - | - | - | - |
| 1778066664 | 21.67° C | 44% | 961 hPa | - | - | - | - |
| 1778066060 | 22.22° C | 44% | 961 hPa | - | - | - | - |
| 1778065457 | 21.11° C | 45% | 962 hPa | - | - | - | - |
| 1778064853 | 21.67° C | 44% | 962 hPa | - | - | - | - |
| 1778064249 | 22.22° C | 43% | 962 hPa | - | - | - | - |
* Rain since midnight (hover to see other rain measurements)
** Current wind speed in m/s (hover to see current wind gust speed)